Time;durP1;ratioP1;P1;durP2;ratioP2;P2;SDS_P1;SDS_P2;PMS_P1;PMS_P2;Temp;Humidity;BMP_temperature;BMP_pressure;BME280_temperature;BME280_humidity;BME280_pressure;Samples;Min_cycle;Max_cycle;Signal;HPM_P1;HPM_P2
2022/10/13 00:00:01;;;;;;;71.18;39.30;;;;;;;;;;4938356;29;20493;-75
2022/10/13 00:02:47;;;;;;;76.40;38.80;;;;;;;;;;4937178;29;20482;-78
2022/10/13 00:05:32;;;;;;;74.10;38.90;;;;;;;;;;4938109;29;20052;-77
2022/10/13 00:08:20;;;;;;;67.97;36.58;;;;;;;;;;4937935;29;20052;-78
2022/10/13 00:11:26;;;;;;;65.22;35.72;;;;;;;;;;4937786;29;20462;-74
2022/10/13 00:14:12;;;;;;;52.42;31.65;;;;;;;;;;4938473;29;20051;-76
2022/10/13 00:16:57;;;;;;;54.78;30.58;;;;;;;;;;4937285;29;20055;-76
2022/10/13 00:19:43;;;;;;;54.90;31.40;;;;;;;;;;4937905;29;20044;-77
2022/10/13 00:22:30;;;;;;;51.33;29.25;;;;;;;;;;4943660;29;20040;-77
2022/10/13 00:25:15;;;;;;;53.72;29.90;;;;;;;;;;4943950;29;20409;-77
2022/10/13 00:28:02;;;;;;;61.55;30.55;;;;;;;;;;4937607;29;20416;-75
2022/10/13 00:30:51;;;;;;;53.17;29.77;;;;;;;;;;4943422;29;20047;-75
2022/10/13 00:33:36;;;;;;;46.80;28.02;;;;;;;;;;4937415;29;20110;-76
2022/10/13 00:36:22;;;;;;;44.50;28.02;;;;;;;;;;4937325;29;20478;-75
2022/10/13 00:39:07;;;;;;;44.45;28.10;;;;;;;;;;4943454;29;20052;-75
2022/10/13 00:41:53;;;;;;;43.63;27.50;;;;;;;;;;4937531;29;20048;-75
2022/10/13 00:45:06;;;;;;;48.92;28.02;;;;;;;;;;4936887;29;20048;-75
2022/10/13 00:48:00;;;;;;;52.90;27.02;;;;;;;;;;4936871;29;20048;-76
2022/10/13 00:50:46;;;;;;;45.35;26.20;;;;;;;;;;4939400;29;20055;-74
2022/10/13 00:53:35;;;;;;;45.85;26.30;;;;;;;;;;4936924;29;20044;-74
2022/10/13 00:56:23;;;;;;;46.95;26.92;;;;;;;;;;4943605;29;20051;-76
2022/10/13 00:59:13;;;;;;;49.45;27.58;;;;;;;;;;4936400;29;20043;-75
2022/10/13 01:02:02;;;;;;;47.92;27.92;;;;;;;;;;4943536;29;20494;-75
2022/10/13 01:04:48;;;;;;;51.88;30.00;;;;;;;;;;4937328;29;20043;-74
2022/10/13 01:07:34;;;;;;;44.72;28.08;;;;;;;;;;4936595;29;20040;-75
2022/10/13 01:10:40;;;;;;;49.70;29.67;;;;;;;;;;4936908;29;20488;-74
2022/10/13 01:13:28;;;;;;;;;;;;;;;;;;4932662;29;20047;-75
2022/10/13 01:16:44;;;;;;;45.60;27.52;;;;;;;;;;4937331;29;19922;-75
2022/10/13 01:20:10;;;;;;;45.97;27.13;;;;;;;;;;4936623;29;20039;-75
2022/10/13 01:22:59;;;;;;;52.90;27.60;;;;;;;;;;4937035;29;20047;-75
2022/10/13 01:25:44;;;;;;;48.80;28.83;;;;;;;;;;4936989;29;20505;-77
2022/10/13 01:28:53;;;;;;;44.72;27.23;;;;;;;;;;4936102;29;20048;-76
2022/10/13 01:32:08;;;;;;;45.40;25.83;;;;;;;;;;4943237;29;20490;-76
2022/10/13 01:35:03;;;;;;;43.40;25.25;;;;;;;;;;4864142;29;20047;-76
2022/10/13 01:37:58;;;;;;;38.53;24.67;;;;;;;;;;4936839;29;20478;-75
2022/10/13 01:41:07;;;;;;;36.15;23.00;;;;;;;;;;4943075;29;20051;-75
2022/10/13 01:44:04;;;;;;;40.45;24.38;;;;;;;;;;4906523;29;20059;-76
2022/10/13 01:46:50;;;;;;;42.95;23.80;;;;;;;;;;4936720;29;20051;-75
2022/10/13 01:49:37;;;;;;;42.88;24.67;;;;;;;;;;4935764;29;20043;-77
2022/10/13 01:52:25;;;;;;;43.00;25.15;;;;;;;;;;4936636;29;20055;-76
2022/10/13 01:55:11;;;;;;;40.85;24.48;;;;;;;;;;4935641;29;20040;-76
2022/10/13 01:57:56;;;;;;;38.63;24.23;;;;;;;;;;4938094;29;20047;-77
2022/10/13 02:00:49;;;;;;;43.10;24.63;;;;;;;;;;4940474;29;20401;-75
2022/10/13 02:03:47;;;;;;;43.97;25.05;;;;;;;;;;4940445;29;20051;-76
2022/10/13 02:06:38;;;;;;;49.03;26.30;;;;;;;;;;4940156;29;20035;-75
2022/10/13 02:09:34;;;;;;;43.55;26.25;;;;;;;;;;4940232;29;20043;-76
2022/10/13 02:12:35;;;;;;;50.20;28.08;;;;;;;;;;4940092;29;20044;-75
2022/10/13 02:15:29;;;;;;;44.08;25.65;;;;;;;;;;4939975;29;20489;-76
2022/10/13 02:18:22;;;;;;;48.20;25.30;;;;;;;;;;4939470;29;20048;-76
2022/10/13 02:21:08;;;;;;;46.50;25.52;;;;;;;;;;4946186;29;20047;-75
2022/10/13 02:23:54;;;;;;;47.78;26.58;;;;;;;;;;4946253;29;20052;-75
2022/10/13 02:26:40;;;;;;;53.03;27.58;;;;;;;;;;4939755;29;20048;-75
2022/10/13 02:29:29;;;;;;;48.35;28.90;;;;;;;;;;4940158;29;20040;-75
2022/10/13 02:32:14;;;;;;;53.65;27.70;;;;;;;;;;4938296;29;20052;-76
2022/10/13 02:35:00;;;;;;;45.67;27.42;;;;;;;;;;4939789;29;20048;-76
2022/10/13 02:37:46;;;;;;;49.15;28.35;;;;;;;;;;4940141;29;20048;-76
2022/10/13 02:40:33;;;;;;;44.22;28.35;;;;;;;;;;4939706;29;20048;-75
2022/10/13 02:43:18;;;;;;;43.13;27.15;;;;;;;;;;4945605;29;20052;-75
2022/10/13 02:46:04;;;;;;;43.47;28.33;;;;;;;;;;4938238;29;20059;-75
2022/10/13 02:48:49;;;;;;;42.17;27.85;;;;;;;;;;4939457;29;20047;-75
2022/10/13 02:51:35;;;;;;;43.83;27.98;;;;;;;;;;4940114;29;20055;-75
2022/10/13 02:54:21;;;;;;;38.40;27.52;;;;;;;;;;4938874;29;20482;-75
2022/10/13 02:57:06;;;;;;;47.10;27.30;;;;;;;;;;4939307;29;20044;-76
2022/10/13 02:59:52;;;;;;;43.42;29.15;;;;;;;;;;4938814;29;20047;-76
2022/10/13 03:02:37;;;;;;;44.22;27.00;;;;;;;;;;4939030;29;20469;-75
2022/10/13 03:05:23;;;;;;;43.42;27.05;;;;;;;;;;4939220;29;20059;-75
2022/10/13 03:08:09;;;;;;;38.05;25.90;;;;;;;;;;4938704;29;20051;-76
2022/10/13 03:10:54;;;;;;;40.72;27.52;;;;;;;;;;4938595;29;20051;-76
2022/10/13 03:13:40;;;;;;;40.42;26.67;;;;;;;;;;4938671;29;20481;-76
2022/10/13 03:16:25;;;;;;;41.88;27.45;;;;;;;;;;4938927;29;20493;-76
2022/10/13 03:19:10;;;;;;;44.40;27.25;;;;;;;;;;4938501;29;20494;-75
2022/10/13 03:21:55;;;;;;;43.97;27.55;;;;;;;;;;4938196;29;20055;-75
2022/10/13 03:24:41;;;;;;;46.70;27.42;;;;;;;;;;4939015;29;20047;-75
2022/10/13 03:27:27;;;;;;;44.50;27.35;;;;;;;;;;4939024;29;20048;-75
2022/10/13 03:30:13;;;;;;;45.55;27.17;;;;;;;;;;4938616;29;20035;-75
2022/10/13 03:32:58;;;;;;;49.28;24.85;;;;;;;;;;4938662;29;20044;-75
2022/10/13 03:35:43;;;;;;;43.03;24.75;;;;;;;;;;4938114;29;20047;-75
2022/10/13 03:38:33;;;;;;;43.22;26.02;;;;;;;;;;4938647;29;20044;-76
2022/10/13 03:41:18;;;;;;;42.30;26.08;;;;;;;;;;4945057;29;20469;-77
2022/10/13 03:44:10;;;;;;;42.17;25.25;;;;;;;;;;4938056;29;20051;-76
2022/10/13 03:46:56;;;;;;;39.88;24.77;;;;;;;;;;4944754;29;20056;-76
2022/10/13 03:49:41;;;;;;;40.72;25.00;;;;;;;;;;4938045;29;20055;-76
2022/10/13 03:52:27;;;;;;;39.80;25.95;;;;;;;;;;4938501;29;20047;-75
2022/10/13 03:55:12;;;;;;;47.75;29.20;;;;;;;;;;4944768;29;20511;-75
2022/10/13 03:57:58;;;;;;;45.65;27.73;;;;;;;;;;4937894;29;20052;-75
2022/10/13 04:00:44;;;;;;;49.28;28.60;;;;;;;;;;4938141;29;20070;-76
2022/10/13 04:03:30;;;;;;;47.40;28.55;;;;;;;;;;4943767;29;20052;-76
2022/10/13 04:06:16;;;;;;;50.42;28.70;;;;;;;;;;4944541;29;20051;-75
2022/10/13 04:09:02;;;;;;;52.50;31.25;;;;;;;;;;4930029;29;20485;-75
2022/10/13 04:11:51;;;;;;;56.80;31.23;;;;;;;;;;4943786;29;20048;-76
2022/10/13 04:14:37;;;;;;;46.72;30.50;;;;;;;;;;4937891;29;20052;-76
2022/10/13 04:17:26;;;;;;;43.75;28.70;;;;;;;;;;4937632;29;20051;-76
2022/10/13 04:20:12;;;;;;;39.25;26.33;;;;;;;;;;4943888;29;20052;-75
2022/10/13 04:22:58;;;;;;;42.10;28.42;;;;;;;;;;4937713;29;20047;-76
2022/10/13 04:25:43;;;;;;;40.83;29.05;;;;;;;;;;4937166;29;20390;-75
2022/10/13 04:28:32;;;;;;;40.88;28.77;;;;;;;;;;4943383;29;20056;-76
2022/10/13 04:31:20;;;;;;;43.88;30.00;;;;;;;;;;4937306;29;20059;-76
2022/10/13 04:34:07;;;;;;;45.22;29.30;;;;;;;;;;4937108;29;20418;-75
2022/10/13 04:36:53;;;;;;;45.03;30.55;;;;;;;;;;4937580;29;20478;-75
2022/10/13 04:39:38;;;;;;;44.42;31.35;;;;;;;;;;4937073;29;20405;-77
2022/10/13 04:42:24;;;;;;;43.00;30.48;;;;;;;;;;4937406;29;20047;-75
2022/10/13 04:45:09;;;;;;;48.80;33.28;;;;;;;;;;4937598;29;20036;-75
2022/10/13 04:47:59;;;;;;;51.83;32.50;;;;;;;;;;4936408;29;20402;-75
2022/10/13 04:50:44;;;;;;;56.17;36.15;;;;;;;;;;4936450;29;20514;-76
2022/10/13 04:53:31;;;;;;;53.95;34.42;;;;;;;;;;4943123;29;20043;-76
2022/10/13 04:56:17;;;;;;;72.18;35.67;;;;;;;;;;4937144;29;20048;-77
2022/10/13 04:59:04;;;;;;;85.05;38.25;;;;;;;;;;4943722;29;20501;-76
2022/10/13 05:01:49;;;;;;;80.72;37.78;;;;;;;;;;4936571;29;20043;-77
2022/10/13 05:04:35;;;;;;;98.57;36.67;;;;;;;;;;4936942;29;20051;-75
2022/10/13 05:07:20;;;;;;;85.30;34.92;;;;;;;;;;4936836;29;20048;-75
2022/10/13 05:10:06;;;;;;;69.53;34.55;;;;;;;;;;4936210;29;20051;-76
2022/10/13 05:12:52;;;;;;;57.53;34.63;;;;;;;;;;4943136;29;20502;-76
2022/10/13 05:15:38;;;;;;;64.05;33.70;;;;;;;;;;4936338;29;20047;-76
2022/10/13 05:18:23;;;;;;;102.20;38.10;;;;;;;;;;4936601;29;20052;-75
2022/10/13 05:21:12;;;;;;;116.35;42.60;;;;;;;;;;4936815;29;20052;-75
2022/10/13 05:23:58;;;;;;;127.07;37.20;;;;;;;;;;4935113;29;20052;-75
2022/10/13 05:26:44;;;;;;;61.35;32.92;;;;;;;;;;4943401;29;20039;-75
2022/10/13 05:29:30;;;;;;;74.80;32.65;;;;;;;;;;4935186;29;20078;-75
2022/10/13 05:32:15;;;;;;;70.95;32.28;;;;;;;;;;4935809;29;20051;-76
2022/10/13 05:35:01;;;;;;;93.82;32.63;;;;;;;;;;4936725;29;20047;-76
2022/10/13 05:37:46;;;;;;;90.13;31.45;;;;;;;;;;4942452;29;20043;-77
2022/10/13 05:40:32;;;;;;;89.95;31.70;;;;;;;;;;4936510;29;20051;-77
2022/10/13 05:43:19;;;;;;;68.38;33.33;;;;;;;;;;4941858;29;20044;-77
2022/10/13 05:46:05;;;;;;;104.43;33.47;;;;;;;;;;4942384;29;20047;-77
2022/10/13 05:48:54;;;;;;;94.72;32.05;;;;;;;;;;4936547;29;20470;-76
2022/10/13 05:51:44;;;;;;;81.13;32.45;;;;;;;;;;4935357;29;20482;-76
2022/10/13 05:54:38;;;;;;;64.57;32.95;;;;;;;;;;4936371;29;20486;-76
2022/10/13 05:57:28;;;;;;;70.57;31.58;;;;;;;;;;4936221;29;20039;-76
2022/10/13 06:00:16;;;;;;;71.22;31.52;;;;;;;;;;4936080;29;20047;-80
2022/10/13 06:03:05;;;;;;;80.35;31.05;;;;;;;;;;4936263;29;20047;-75
2022/10/13 06:05:50;;;;;;;78.57;31.45;;;;;;;;;;4935369;29;20047;-77
2022/10/13 06:08:37;;;;;;;69.00;31.38;;;;;;;;;;4936157;29;20055;-74
2022/10/13 06:11:22;;;;;;;76.20;31.08;;;;;;;;;;4935770;29;20425;-76
2022/10/13 06:14:08;;;;;;;57.65;31.02;;;;;;;;;;4942235;29;20056;-75
2022/10/13 06:16:53;;;;;;;88.60;30.05;;;;;;;;;;4942916;29;20497;-77
2022/10/13 06:19:39;;;;;;;68.80;31.20;;;;;;;;;;4935624;29;20043;-76
2022/10/13 06:22:27;;;;;;;74.97;31.38;;;;;;;;;;4936267;29;20480;-74
2022/10/13 06:25:13;;;;;;;77.45;33.03;;;;;;;;;;4942295;29;20401;-76
2022/10/13 06:27:59;;;;;;;99.13;33.40;;;;;;;;;;4935604;29;20410;-76
2022/10/13 06:30:48;;;;;;;81.85;33.45;;;;;;;;;;4936675;29;20052;-76
2022/10/13 06:33:33;;;;;;;81.60;33.03;;;;;;;;;;4935518;29;20052;-76
2022/10/13 06:36:19;;;;;;;60.90;32.78;;;;;;;;;;4942614;29;20051;-76
2022/10/13 06:39:04;;;;;;;71.00;34.53;;;;;;;;;;4942118;29;20043;-76
2022/10/13 06:41:51;;;;;;;72.65;34.13;;;;;;;;;;4935634;29;20394;-77
2022/10/13 06:44:36;;;;;;;62.00;34.38;;;;;;;;;;4937511;29;20059;-77
2022/10/13 06:47:22;;;;;;;67.38;35.50;;;;;;;;;;4939387;29;20048;-73
2022/10/13 06:50:08;;;;;;;73.35;36.05;;;;;;;;;;4939620;29;20486;-73
2022/10/13 06:52:55;;;;;;;76.15;39.45;;;;;;;;;;4939787;29;20055;-73
2022/10/13 06:55:42;;;;;;;75.32;38.95;;;;;;;;;;4940601;29;20052;-75
2022/10/13 06:58:27;;;;;;;70.68;37.15;;;;;;;;;;4940375;29;20040;-74
2022/10/13 07:01:13;;;;;;;72.85;37.90;;;;;;;;;;4945224;29;20056;-75
2022/10/13 07:03:58;;;;;;;79.57;40.33;;;;;;;;;;4938714;29;20047;-74
2022/10/13 07:06:44;;;;;;;84.03;38.92;;;;;;;;;;4939024;29;20051;-73
2022/10/13 07:09:30;;;;;;;68.82;37.67;;;;;;;;;;4944354;29;20044;-75
2022/10/13 07:12:16;;;;;;;67.05;38.08;;;;;;;;;;4937950;29;20063;-74
2022/10/13 07:15:02;;;;;;;66.43;38.40;;;;;;;;;;4938707;29;20047;-74
2022/10/13 07:17:47;;;;;;;67.75;37.58;;;;;;;;;;4938552;29;20048;-76
2022/10/13 07:20:33;;;;;;;59.55;36.63;;;;;;;;;;4945366;29;20043;-75
2022/10/13 07:23:18;;;;;;;60.35;35.15;;;;;;;;;;4937849;29;20039;-76
2022/10/13 07:26:10;;;;;;;62.00;34.25;;;;;;;;;;4938604;29;20493;-74
2022/10/13 07:28:55;;;;;;;59.33;34.75;;;;;;;;;;4938606;29;20051;-74
2022/10/13 07:31:42;;;;;;;56.15;33.88;;;;;;;;;;4937902;29;20043;-75
2022/10/13 07:34:28;;;;;;;62.10;36.17;;;;;;;;;;4937798;29;20056;-75
2022/10/13 07:37:13;;;;;;;60.70;35.38;;;;;;;;;;4943413;29;20048;-75
2022/10/13 07:39:59;;;;;;;62.05;36.03;;;;;;;;;;4938342;29;20405;-75
2022/10/13 07:42:46;;;;;;;69.60;38.85;;;;;;;;;;4943369;29;20039;-75
2022/10/13 07:45:32;;;;;;;81.90;44.15;;;;;;;;;;4937934;29;20052;-74
2022/10/13 07:48:18;;;;;;;81.00;41.35;;;;;;;;;;4938249;29;20044;-75
2022/10/13 07:51:06;;;;;;;77.55;38.38;;;;;;;;;;4939025;29;20503;-78
2022/10/13 07:53:51;;;;;;;77.97;41.05;;;;;;;;;;4937667;29;20047;-81
2022/10/13 07:56:37;;;;;;;85.18;41.40;;;;;;;;;;4937951;29;20052;-78
2022/10/13 07:59:22;;;;;;;88.40;44.00;;;;;;;;;;4938004;29;20482;-79
2022/10/13 08:02:08;;;;;;;81.68;43.03;;;;;;;;;;4938264;29;20043;-78
2022/10/13 08:04:54;;;;;;;92.30;42.97;;;;;;;;;;4939120;29;20051;-80
2022/10/13 08:07:40;;;;;;;115.65;51.47;;;;;;;;;;4938935;29;20059;-76
2022/10/13 08:10:28;;;;;;;97.32;42.75;;;;;;;;;;4945376;29;20143;-78
2022/10/13 08:13:13;;;;;;;109.93;50.78;;;;;;;;;;4948306;29;20051;-79
2022/10/13 08:16:00;;;;;;;116.22;56.25;;;;;;;;;;4949972;29;20040;-79
2022/10/13 08:18:47;;;;;;;126.22;62.42;;;;;;;;;;4950368;29;20043;-78
2022/10/13 08:21:33;;;;;;;90.65;48.35;;;;;;;;;;4944164;29;20051;-78
2022/10/13 08:24:21;;;;;;;89.38;44.33;;;;;;;;;;4943123;29;20039;-78
2022/10/13 08:27:10;;;;;;;82.60;44.13;;;;;;;;;;4949140;29;20051;-78
2022/10/13 08:29:56;;;;;;;89.88;51.78;;;;;;;;;;4940460;29;20052;-78
2022/10/13 08:32:42;;;;;;;90.57;44.40;;;;;;;;;;4943445;29;20048;-78
2022/10/13 08:35:27;;;;;;;85.22;47.33;;;;;;;;;;4948122;29;20047;-79
2022/10/13 08:38:13;;;;;;;72.60;42.88;;;;;;;;;;4939317;29;20040;-78
2022/10/13 08:40:59;;;;;;;61.05;39.05;;;;;;;;;;4940682;29;20055;-78
2022/10/13 08:43:49;;;;;;;65.07;38.17;;;;;;;;;;4948360;29;20051;-78
2022/10/13 08:46:46;;;;;;;109.63;67.03;;;;;;;;;;4949820;29;20055;-78
2022/10/13 08:49:32;;;;;;;58.30;36.47;;;;;;;;;;4947414;29;20040;-78
2022/10/13 08:52:21;;;;;;;79.78;44.05;;;;;;;;;;4945383;29;20043;-77
2022/10/13 08:55:16;;;;;;;72.28;42.10;;;;;;;;;;4943702;29;20047;-78
2022/10/13 08:58:11;;;;;;;71.03;40.55;;;;;;;;;;4937010;29;20397;-78
2022/10/13 09:01:17;;;;;;;69.68;39.42;;;;;;;;;;4938625;29;20393;-78
2022/10/13 09:04:25;;;;;;;64.18;36.65;;;;;;;;;;4937468;29;20055;-78
2022/10/13 09:07:16;;;;;;;60.85;37.58;;;;;;;;;;4942116;29;20044;-77
2022/10/13 09:10:02;;;;;;;62.17;35.67;;;;;;;;;;4940932;29;20056;-78
2022/10/13 09:12:50;;;;;;;56.63;31.25;;;;;;;;;;4940840;29;20497;-77
2022/10/13 09:15:49;;;;;;;56.67;32.38;;;;;;;;;;4939532;29;20051;-77
2022/10/13 09:18:36;;;;;;;60.28;33.08;;;;;;;;;;4939371;29;20047;-77
2022/10/13 09:21:26;;;;;;;57.70;32.58;;;;;;;;;;4938314;29;20052;-78
2022/10/13 09:24:16;;;;;;;62.47;34.70;;;;;;;;;;4939537;29;20344;-79
2022/10/13 09:27:10;;;;;;;57.28;33.83;;;;;;;;;;4939454;29;20047;-78
2022/10/13 09:30:24;;;;;;;51.33;31.25;;;;;;;;;;4943034;29;20048;-77
2022/10/13 09:33:11;;;;;;;48.70;29.75;;;;;;;;;;4946205;29;20060;-77
2022/10/13 09:36:01;;;;;;;49.13;30.08;;;;;;;;;;4942830;29;20047;-77
2022/10/13 09:39:15;;;;;;;53.67;31.08;;;;;;;;;;4951147;29;20040;-76
2022/10/13 09:42:24;;;;;;;43.78;26.40;;;;;;;;;;4943472;29;20039;-81
2022/10/13 09:45:16;;;;;;;46.30;29.65;;;;;;;;;;4942916;29;20398;-78
2022/10/13 09:48:05;;;;;;;48.10;30.20;;;;;;;;;;4936466;29;20470;-78
2022/10/13 09:50:53;;;;;;;54.78;31.00;;;;;;;;;;4944858;29;20044;-76
2022/10/13 09:53:40;;;;;;;40.10;24.65;;;;;;;;;;4941052;29;20493;-77
2022/10/13 09:56:42;;;;;;;41.92;23.55;;;;;;;;;;4936427;29;20409;-78
2022/10/13 09:59:35;;;;;;;47.75;27.45;;;;;;;;;;4943123;29;20063;-76
2022/10/13 10:02:30;;;;;;;48.97;29.75;;;;;;;;;;4937027;29;20039;-76
2022/10/13 10:05:52;;;;;;;48.65;28.05;;;;;;;;;;4937164;29;20058;-78
2022/10/13 10:08:46;;;;;;;47.08;27.48;;;;;;;;;;4933165;29;20052;-78
2022/10/13 10:11:42;;;;;;;43.75;27.23;;;;;;;;;;4936152;29;20044;-78
2022/10/13 10:14:30;;;;;;;40.35;22.08;;;;;;;;;;4938990;29;20501;-78
2022/10/13 10:17:27;;;;;;;40.08;24.75;;;;;;;;;;4938758;29;20048;-77
2022/10/13 10:20:23;;;;;;;39.00;24.90;;;;;;;;;;4945703;29;20039;-76
2022/10/13 10:23:34;;;;;;;40.60;26.67;;;;;;;;;;4940639;29;20043;-79
2022/10/13 10:26:35;;;;;;;44.63;26.52;;;;;;;;;;4940328;29;20035;-77
2022/10/13 10:29:23;;;;;;;38.97;25.33;;;;;;;;;;4940074;29;20036;-78
2022/10/13 10:32:33;;;;;;;41.30;25.08;;;;;;;;;;4939562;29;20048;-79
2022/10/13 10:35:43;;;;;;;33.65;22.13;;;;;;;;;;4939910;29;20048;-78
2022/10/13 10:38:49;;;;;;;29.95;19.20;;;;;;;;;;4946243;29;20051;-78
2022/10/13 10:41:41;;;;;;;25.27;17.45;;;;;;;;;;4946316;29;20056;-77
2022/10/13 10:44:41;;;;;;;31.33;18.70;;;;;;;;;;4939010;29;20055;-79
2022/10/13 10:47:38;;;;;;;29.85;17.67;;;;;;;;;;4939172;29;20052;-76
2022/10/13 10:50:24;;;;;;;27.80;15.05;;;;;;;;;;4938645;29;20052;-77
2022/10/13 10:53:48;;;;;;;23.73;16.23;;;;;;;;;;4939415;29;20394;-80
2022/10/13 10:56:40;;;;;;;19.83;13.70;;;;;;;;;;4903571;29;20059;-77
2022/10/13 10:59:39;;;;;;;23.60;12.05;;;;;;;;;;4939059;29;20478;-79
2022/10/13 11:02:33;;;;;;;17.95;10.82;;;;;;;;;;4939084;29;20047;-76
2022/10/13 11:05:20;;;;;;;12.25;8.45;;;;;;;;;;4938555;29;20044;-76
2022/10/13 11:08:36;;;;;;;11.90;8.52;;;;;;;;;;4938969;29;20048;-77
2022/10/13 11:11:21;;;;;;;19.08;9.00;;;;;;;;;;4938664;29;20047;-80
2022/10/13 11:14:07;;;;;;;13.27;9.65;;;;;;;;;;4939082;29;20060;-79
2022/10/13 11:17:04;;;;;;;13.85;8.65;;;;;;;;;;4939454;29;20040;-78
2022/10/13 11:19:50;;;;;;;16.40;9.60;;;;;;;;;;4933851;29;20055;-76
2022/10/13 11:22:35;;;;;;;15.05;8.43;;;;;;;;;;4938947;29;20515;-78
2022/10/13 11:25:40;;;;;;;14.55;7.97;;;;;;;;;;4937536;29;20055;-79
2022/10/13 11:28:41;;;;;;;13.30;8.35;;;;;;;;;;4938416;29;20055;-77
2022/10/13 11:31:30;;;;;;;7.03;5.28;;;;;;;;;;4937388;29;20501;-77
2022/10/13 11:34:28;;;;;;;6.22;5.00;;;;;;;;;;4937783;29;20047;-79
2022/10/13 11:37:16;;;;;;;8.93;5.55;;;;;;;;;;4938301;29;20039;-79
2022/10/13 11:40:30;;;;;;;6.53;4.85;;;;;;;;;;4937893;29;20043;-74
2022/10/13 11:43:33;;;;;;;8.38;6.18;;;;;;;;;;4944249;29;20533;-74
2022/10/13 11:46:26;;;;;;;9.75;5.55;;;;;;;;;;4944715;29;20117;-74
2022/10/13 11:49:49;;;;;;;11.95;5.65;;;;;;;;;;4938064;29;20056;-74
2022/10/13 11:52:52;;;;;;;9.48;5.20;;;;;;;;;;4938003;29;20052;-73
2022/10/13 11:55:49;;;;;;;8.20;5.13;;;;;;;;;;4937979;29;20060;-74
2022/10/13 11:58:41;;;;;;;11.50;5.00;;;;;;;;;;4937953;29;20044;-74
2022/10/13 12:01:26;;;;;;;8.13;4.40;;;;;;;;;;4937582;29;20402;-74
2022/10/13 12:04:13;;;;;;;7.40;5.15;;;;;;;;;;4944025;29;20406;-77
2022/10/13 12:07:02;;;;;;;7.80;5.00;;;;;;;;;;4937560;29;20497;-74
2022/10/13 12:09:51;;;;;;;9.38;4.78;;;;;;;;;;4937877;29;20398;-75
2022/10/13 12:12:45;;;;;;;5.78;4.20;;;;;;;;;;4937475;29;20051;-75
2022/10/13 12:15:38;;;;;;;7.80;4.07;;;;;;;;;;4937175;29;20063;-74
2022/10/13 12:18:42;;;;;;;7.63;4.53;;;;;;;;;;4937572;29;20047;-74
2022/10/13 12:21:27;;;;;;;7.00;4.60;;;;;;;;;;4937369;29;20402;-75
2022/10/13 12:24:13;;;;;;;5.35;4.07;;;;;;;;;;4943803;29;20438;-74
2022/10/13 12:27:35;;;;;;;6.65;5.25;;;;;;;;;;4943965;29;20043;-73
2022/10/13 12:30:21;;;;;;;6.32;4.78;;;;;;;;;;4917834;29;20362;-75
2022/10/13 12:33:31;;;;;;;11.30;4.40;;;;;;;;;;4937394;29;20051;-75
2022/10/13 12:36:18;;;;;;;7.43;4.63;;;;;;;;;;4936480;29;20055;-74
2022/10/13 12:39:06;;;;;;;6.38;4.57;;;;;;;;;;4937396;29;20052;-73
2022/10/13 12:41:53;;;;;;;8.95;3.97;;;;;;;;;;4943301;29;20044;-75
2022/10/13 12:44:38;;;;;;;8.60;4.65;;;;;;;;;;4942573;29;20051;-73
2022/10/13 12:47:38;;;;;;;14.32;6.15;;;;;;;;;;4937446;29;20390;-73
2022/10/13 12:50:29;;;;;;;5.13;3.70;;;;;;;;;;4940092;29;20039;-74
2022/10/13 12:53:27;;;;;;;4.80;3.20;;;;;;;;;;4943383;29;20055;-75
2022/10/13 12:56:27;;;;;;;7.40;5.10;;;;;;;;;;4937213;29;20405;-75
2022/10/13 12:59:17;;;;;;;9.00;4.95;;;;;;;;;;4936156;29;20055;-73
2022/10/13 13:02:23;;;;;;;7.00;3.92;;;;;;;;;;4937370;29;20063;-75
2022/10/13 13:05:35;;;;;;;6.88;4.03;;;;;;;;;;4935703;29;20051;-75
2022/10/13 13:08:22;;;;;;;7.50;3.60;;;;;;;;;;4937085;29;20047;-74
2022/10/13 13:11:31;;;;;;;9.73;4.47;;;;;;;;;;4936500;29;20036;-75
2022/10/13 13:14:39;;;;;;;5.50;4.68;;;;;;;;;;4936925;29;20048;-73
2022/10/13 13:17:29;;;;;;;9.23;4.80;;;;;;;;;;4936811;29;20506;-75
2022/10/13 13:20:28;;;;;;;8.07;5.30;;;;;;;;;;4936013;29;20047;-73
2022/10/13 13:23:17;;;;;;;6.93;5.55;;;;;;;;;;4942941;29;20052;-73
2022/10/13 13:26:12;;;;;;;10.15;4.50;;;;;;;;;;4936197;29;20434;-74
2022/10/13 13:28:57;;;;;;;7.07;4.85;;;;;;;;;;4936832;29;20060;-73
2022/10/13 13:31:44;;;;;;;11.55;5.40;;;;;;;;;;4936226;29;20047;-74
2022/10/13 13:34:29;;;;;;;8.10;5.45;;;;;;;;;;4935755;29;20055;-74
2022/10/13 13:37:34;;;;;;;9.80;5.82;;;;;;;;;;4935850;29;20418;-74
2022/10/13 13:40:21;;;;;;;9.32;5.35;;;;;;;;;;4941908;29;20048;-74
2022/10/13 13:43:08;;;;;;;9.32;5.35;;;;;;;;;;4936105;29;20059;-75
2022/10/13 13:45:53;;;;;;;11.43;5.55;;;;;;;;;;4936176;29;20052;-73
2022/10/13 13:48:41;;;;;;;8.65;5.97;;;;;;;;;;4935371;29;20055;-74
2022/10/13 13:51:27;;;;;;;8.90;5.57;;;;;;;;;;4935797;29;20044;-75
2022/10/13 13:54:13;;;;;;;12.15;5.43;;;;;;;;;;4941871;29;20044;-73
2022/10/13 13:56:58;;;;;;;12.93;5.88;;;;;;;;;;4936217;29;20055;-75
2022/10/13 13:59:45;;;;;;;11.45;5.85;;;;;;;;;;4942813;29;20051;-75
2022/10/13 14:02:30;;;;;;;13.13;5.93;;;;;;;;;;4935658;29;20044;-75
2022/10/13 14:05:16;;;;;;;14.02;6.50;;;;;;;;;;4936177;29;20051;-75
2022/10/13 14:08:02;;;;;;;9.23;6.50;;;;;;;;;;4935994;29;20043;-73
2022/10/13 14:10:47;;;;;;;11.23;6.50;;;;;;;;;;4934951;29;20044;-74
2022/10/13 14:13:36;;;;;;;13.48;6.60;;;;;;;;;;4942769;29;20052;-74
2022/10/13 14:16:21;;;;;;;13.38;7.78;;;;;;;;;;4935118;29;20486;-75
2022/10/13 14:19:09;;;;;;;47.28;24.40;;;;;;;;;;4942410;29;20048;-74
2022/10/13 14:21:55;;;;;;;49.63;27.48;;;;;;;;;;4935878;29;20055;-74
2022/10/13 14:24:40;;;;;;;120.30;55.80;;;;;;;;;;4935018;29;20052;-74
2022/10/13 14:27:26;;;;;;;36.28;14.80;;;;;;;;;;4936269;29;20055;-74
2022/10/13 14:30:12;;;;;;;42.20;22.90;;;;;;;;;;4935335;29;20040;-74
2022/10/13 14:32:58;;;;;;;61.85;32.13;;;;;;;;;;4935668;29;20394;-74
2022/10/13 14:35:45;;;;;;;22.55;13.30;;;;;;;;;;4935994;29;20490;-74
2022/10/13 14:38:34;;;;;;;21.13;12.95;;;;;;;;;;4935344;29;20044;-74
2022/10/13 14:41:20;;;;;;;31.50;17.52;;;;;;;;;;4935714;29;20039;-74
2022/10/13 14:44:10;;;;;;;43.88;29.73;;;;;;;;;;4935223;29;20049;-74
2022/10/13 14:46:58;;;;;;;41.47;25.40;;;;;;;;;;4935475;29;20048;-79
2022/10/13 14:49:43;;;;;;;67.47;38.45;;;;;;;;;;4940914;29;20052;-76
2022/10/13 14:52:28;;;;;;;36.92;21.27;;;;;;;;;;4940998;29;20048;-76
2022/10/13 14:55:14;;;;;;;29.90;18.65;;;;;;;;;;4935860;29;20055;-75
2022/10/13 14:58:02;;;;;;;45.15;27.58;;;;;;;;;;4935661;29;20039;-74
2022/10/13 15:00:48;;;;;;;18.25;13.13;;;;;;;;;;4935147;29;20039;-73
2022/10/13 15:03:33;;;;;;;26.10;14.15;;;;;;;;;;4935138;29;20044;-74
2022/10/13 15:06:22;;;;;;;26.13;12.77;;;;;;;;;;4943213;29;20052;-75
2022/10/13 15:09:08;;;;;;;19.00;11.27;;;;;;;;;;4945186;29;20481;-75
2022/10/13 15:11:54;;;;;;;19.30;12.18;;;;;;;;;;4937726;29;20049;-73
2022/10/13 15:14:40;;;;;;;26.23;13.23;;;;;;;;;;4938205;29;20477;-75
2022/10/13 15:17:25;;;;;;;22.15;11.43;;;;;;;;;;4938712;29;20040;-75
2022/10/13 15:20:11;;;;;;;19.55;12.95;;;;;;;;;;4938153;29;20402;-75
2022/10/13 15:22:56;;;;;;;29.83;14.57;;;;;;;;;;4938913;29;20059;-76
2022/10/13 15:25:55;;;;;;;29.10;15.05;;;;;;;;;;4938437;29;20494;-76
2022/10/13 15:28:45;;;;;;;33.13;15.27;;;;;;;;;;4938142;29;20044;-76
2022/10/13 15:31:31;;;;;;;31.85;15.85;;;;;;;;;;4938663;29;20051;-73
2022/10/13 15:34:17;;;;;;;27.98;15.50;;;;;;;;;;4938295;29;20051;-74
2022/10/13 15:37:02;;;;;;;28.65;15.65;;;;;;;;;;4938324;29;20051;-74
2022/10/13 15:39:48;;;;;;;26.23;13.82;;;;;;;;;;4944156;29;20044;-75
2022/10/13 15:42:33;;;;;;;27.52;14.02;;;;;;;;;;4944369;29;20389;-75
2022/10/13 15:45:18;;;;;;;29.42;15.93;;;;;;;;;;4937735;29;20044;-75
2022/10/13 15:48:05;;;;;;;33.55;20.73;;;;;;;;;;4937368;29;20043;-75
2022/10/13 15:50:51;;;;;;;24.83;15.13;;;;;;;;;;4938068;29;20040;-74
2022/10/13 15:53:37;;;;;;;25.25;14.82;;;;;;;;;;4937919;29;20508;-73
2022/10/13 15:56:22;;;;;;;28.70;14.98;;;;;;;;;;4936562;29;20044;-75
2022/10/13 15:59:08;;;;;;;39.28;18.83;;;;;;;;;;4937466;29;20048;-74
2022/10/13 16:01:53;;;;;;;41.88;23.48;;;;;;;;;;4944203;29;20478;-75
2022/10/13 16:04:39;;;;;;;46.72;25.80;;;;;;;;;;4937922;29;20385;-74
2022/10/13 16:07:25;;;;;;;93.90;47.85;;;;;;;;;;4938041;29;20052;-76
2022/10/13 16:10:13;;;;;;;61.47;35.08;;;;;;;;;;4943870;29;20055;-75
2022/10/13 16:12:58;;;;;;;42.20;23.00;;;;;;;;;;4938124;29;20052;-75
2022/10/13 16:15:43;;;;;;;65.55;30.08;;;;;;;;;;4937606;29;20481;-75
2022/10/13 16:18:31;;;;;;;57.08;30.13;;;;;;;;;;4937141;29;20043;-73
2022/10/13 16:21:24;;;;;;;60.03;31.30;;;;;;;;;;4937749;29;20043;-78
2022/10/13 16:24:09;;;;;;;68.45;35.92;;;;;;;;;;4936986;29;20055;-79
2022/10/13 16:26:54;;;;;;;143.00;81.75;;;;;;;;;;4937728;29;20043;-78
2022/10/13 16:29:42;;;;;;;75.45;43.20;;;;;;;;;;4944344;29;20047;-79
2022/10/13 16:32:27;;;;;;;71.97;40.30;;;;;;;;;;4943586;29;20051;-79